sensor_id;sensor_type;location;lat;lon;timestamp;temperature;humidity
52203;DHT22;38173;52.850;6.970;2022-08-24T00:01:03;18.60;99.90
52203;DHT22;38173;52.850;6.970;2022-08-24T00:03:30;18.60;99.90
52203;DHT22;38173;52.850;6.970;2022-08-24T00:05:56;18.60;99.90
52203;DHT22;38173;52.850;6.970;2022-08-24T00:08:22;18.50;99.90
52203;DHT22;38173;52.850;6.970;2022-08-24T00:10:48;18.50;99.90
52203;DHT22;38173;52.850;6.970;2022-08-24T00:13:14;18.50;99.90
52203;DHT22;38173;52.850;6.970;2022-08-24T00:15:41;18.50;99.90
52203;DHT22;38173;52.850;6.970;2022-08-24T00:18:07;18.40;99.90
52203;DHT22;38173;52.850;6.970;2022-08-24T00:20:33;18.40;99.90
52203;DHT22;38173;52.850;6.970;2022-08-24T00:22:59;18.40;99.90
52203;DHT22;38173;52.850;6.970;2022-08-24T00:25:25;18.40;99.90
52203;DHT22;38173;52.850;6.970;2022-08-24T00:27:51;18.40;99.90
52203;DHT22;38173;52.850;6.970;2022-08-24T00:30:19;18.40;99.90
52203;DHT22;38173;52.850;6.970;2022-08-24T00:32:46;18.40;99.90
52203;DHT22;38173;52.850;6.970;2022-08-24T00:35:13;18.40;99.90
52203;DHT22;38173;52.850;6.970;2022-08-24T00:37:40;18.40;99.90
52203;DHT22;38173;52.850;6.970;2022-08-24T00:40:10;18.40;99.90
52203;DHT22;38173;52.850;6.970;2022-08-24T00:42:39;18.30;99.90
52203;DHT22;38173;52.850;6.970;2022-08-24T00:45:07;18.30;99.90
52203;DHT22;38173;52.850;6.970;2022-08-24T00:47:49;18.30;99.90
52203;DHT22;38173;52.850;6.970;2022-08-24T00:50:23;18.30;99.90
52203;DHT22;38173;52.850;6.970;2022-08-24T00:52:55;18.30;99.90
52203;DHT22;38173;52.850;6.970;2022-08-24T00:55:34;18.30;99.90
52203;DHT22;38173;52.850;6.970;2022-08-24T00:58:05;18.30;99.90
52203;DHT22;38173;52.850;6.970;2022-08-24T01:00:38;18.20;99.90
52203;DHT22;38173;52.850;6.970;2022-08-24T01:03:05;18.20;99.90
52203;DHT22;38173;52.850;6.970;2022-08-24T01:05:33;18.20;99.90
52203;DHT22;38173;52.850;6.970;2022-08-24T01:08:00;18.00;99.90
52203;DHT22;38173;52.850;6.970;2022-08-24T01:10:28;17.90;99.90
52203;DHT22;38173;52.850;6.970;2022-08-24T01:12:57;17.90;99.90
52203;DHT22;38173;52.850;6.970;2022-08-24T01:15:23;17.80;99.90
52203;DHT22;38173;52.850;6.970;2022-08-24T01:17:49;17.80;99.90
52203;DHT22;38173;52.850;6.970;2022-08-24T01:20:34;17.80;99.90
52203;DHT22;38173;52.850;6.970;2022-08-24T01:25:59;17.60;99.90
52203;DHT22;38173;52.850;6.970;2022-08-24T01:28:26;17.60;99.90
52203;DHT22;38173;52.850;6.970;2022-08-24T01:30:54;17.60;99.90
52203;DHT22;38173;52.850;6.970;2022-08-24T01:33:23;17.60;99.90
52203;DHT22;38173;52.850;6.970;2022-08-24T01:35:49;17.60;99.90
52203;DHT22;38173;52.850;6.970;2022-08-24T01:38:19;17.50;99.90
52203;DHT22;38173;52.850;6.970;2022-08-24T01:40:49;17.50;99.90
52203;DHT22;38173;52.850;6.970;2022-08-24T01:43:15;17.50;99.90
52203;DHT22;38173;52.850;6.970;2022-08-24T01:45:42;17.50;99.90
52203;DHT22;38173;52.850;6.970;2022-08-24T01:48:09;17.50;99.90
52203;DHT22;38173;52.850;6.970;2022-08-24T01:50:35;17.40;99.90
52203;DHT22;38173;52.850;6.970;2022-08-24T01:53:04;17.40;99.90
52203;DHT22;38173;52.850;6.970;2022-08-24T01:55:31;17.30;99.90
52203;DHT22;38173;52.850;6.970;2022-08-24T01:57:57;17.20;99.90
52203;DHT22;38173;52.850;6.970;2022-08-24T02:00:23;17.20;99.90
52203;DHT22;38173;52.850;6.970;2022-08-24T02:02:50;17.10;99.90
52203;DHT22;38173;52.850;6.970;2022-08-24T02:05:16;17.10;99.90
52203;DHT22;38173;52.850;6.970;2022-08-24T02:07:43;17.00;99.90
52203;DHT22;38173;52.850;6.970;2022-08-24T02:10:10;17.00;99.90
52203;DHT22;38173;52.850;6.970;2022-08-24T02:12:38;17.00;99.90
52203;DHT22;38173;52.850;6.970;2022-08-24T02:15:06;17.00;99.90
52203;DHT22;38173;52.850;6.970;2022-08-24T02:17:34;17.00;99.90
52203;DHT22;38173;52.850;6.970;2022-08-24T02:20:01;17.00;99.90
52203;DHT22;38173;52.850;6.970;2022-08-24T02:22:27;17.00;99.90
52203;DHT22;38173;52.850;6.970;2022-08-24T02:24:53;17.00;99.90
52203;DHT22;38173;52.850;6.970;2022-08-24T02:27:19;17.00;99.90
52203;DHT22;38173;52.850;6.970;2022-08-24T02:29:45;17.00;99.90
52203;DHT22;38173;52.850;6.970;2022-08-24T02:32:11;17.00;99.90
52203;DHT22;38173;52.850;6.970;2022-08-24T02:34:37;17.00;99.90
52203;DHT22;38173;52.850;6.970;2022-08-24T02:37:04;16.90;99.90
52203;DHT22;38173;52.850;6.970;2022-08-24T02:39:30;16.90;99.90
52203;DHT22;38173;52.850;6.970;2022-08-24T02:41:55;16.80;99.90
52203;DHT22;38173;52.850;6.970;2022-08-24T02:44:21;16.80;99.90
52203;DHT22;38173;52.850;6.970;2022-08-24T02:46:47;16.80;99.90
52203;DHT22;38173;52.850;6.970;2022-08-24T02:49:13;16.80;99.90
52203;DHT22;38173;52.850;6.970;2022-08-24T02:51:41;16.80;99.90
52203;DHT22;38173;52.850;6.970;2022-08-24T02:54:07;16.70;99.90
52203;DHT22;38173;52.850;6.970;2022-08-24T02:56:33;16.60;99.90
52203;DHT22;38173;52.850;6.970;2022-08-24T02:59:00;16.60;99.90
52203;DHT22;38173;52.850;6.970;2022-08-24T03:01:26;16.50;99.90
52203;DHT22;38173;52.850;6.970;2022-08-24T03:03:53;16.40;99.90
52203;DHT22;38173;52.850;6.970;2022-08-24T03:06:19;16.30;99.90
52203;DHT22;38173;52.850;6.970;2022-08-24T03:08:46;16.30;99.90
52203;DHT22;38173;52.850;6.970;2022-08-24T03:11:12;16.30;99.90
52203;DHT22;38173;52.850;6.970;2022-08-24T03:13:38;16.30;99.90
52203;DHT22;38173;52.850;6.970;2022-08-24T03:16:05;16.30;99.90
52203;DHT22;38173;52.850;6.970;2022-08-24T03:18:31;16.30;99.90
52203;DHT22;38173;52.850;6.970;2022-08-24T03:20:58;16.30;99.90
52203;DHT22;38173;52.850;6.970;2022-08-24T03:23:25;16.40;99.90
52203;DHT22;38173;52.850;6.970;2022-08-24T03:25:52;16.30;99.90
52203;DHT22;38173;52.850;6.970;2022-08-24T03:28:20;16.30;99.90
52203;DHT22;38173;52.850;6.970;2022-08-24T03:30:46;16.30;99.90
52203;DHT22;38173;52.850;6.970;2022-08-24T03:33:12;16.30;99.90
52203;DHT22;38173;52.850;6.970;2022-08-24T03:35:38;16.30;99.90
52203;DHT22;38173;52.850;6.970;2022-08-24T03:38:04;16.30;99.90
52203;DHT22;38173;52.850;6.970;2022-08-24T03:40:30;16.30;99.90
52203;DHT22;38173;52.850;6.970;2022-08-24T03:42:58;16.20;99.90
52203;DHT22;38173;52.850;6.970;2022-08-24T03:45:25;16.20;99.90
52203;DHT22;38173;52.850;6.970;2022-08-24T03:47:51;16.20;99.90
52203;DHT22;38173;52.850;6.970;2022-08-24T03:50:18;16.30;99.90
52203;DHT22;38173;52.850;6.970;2022-08-24T03:52:45;16.20;99.90
52203;DHT22;38173;52.850;6.970;2022-08-24T03:55:11;16.20;99.90
52203;DHT22;38173;52.850;6.970;2022-08-24T03:57:38;16.20;99.90
52203;DHT22;38173;52.850;6.970;2022-08-24T04:00:07;16.20;99.90
52203;DHT22;38173;52.850;6.970;2022-08-24T04:02:34;16.10;99.90
52203;DHT22;38173;52.850;6.970;2022-08-24T04:05:00;16.10;99.90
52203;DHT22;38173;52.850;6.970;2022-08-24T04:07:25;16.00;99.90
52203;DHT22;38173;52.850;6.970;2022-08-24T04:09:52;16.00;99.90
52203;DHT22;38173;52.850;6.970;2022-08-24T04:12:20;15.90;99.90
52203;DHT22;38173;52.850;6.970;2022-08-24T04:14:50;15.80;99.90
52203;DHT22;38173;52.850;6.970;2022-08-24T04:17:17;15.80;99.90
52203;DHT22;38173;52.850;6.970;2022-08-24T04:19:43;15.80;99.90
52203;DHT22;38173;52.850;6.970;2022-08-24T04:22:27;15.70;99.90
52203;DHT22;38173;52.850;6.970;2022-08-24T04:24:53;15.70;99.90
52203;DHT22;38173;52.850;6.970;2022-08-24T04:27:19;15.70;99.90
52203;DHT22;38173;52.850;6.970;2022-08-24T04:29:44;15.70;99.90
52203;DHT22;38173;52.850;6.970;2022-08-24T04:32:10;15.60;99.90
52203;DHT22;38173;52.850;6.970;2022-08-24T04:34:37;15.60;99.90
52203;DHT22;38173;52.850;6.970;2022-08-24T04:37:02;15.60;99.90
52203;DHT22;38173;52.850;6.970;2022-08-24T04:39:28;15.60;99.90
52203;DHT22;38173;52.850;6.970;2022-08-24T04:41:54;15.60;99.90
52203;DHT22;38173;52.850;6.970;2022-08-24T04:44:21;15.60;99.90
52203;DHT22;38173;52.850;6.970;2022-08-24T04:46:47;15.60;99.90
52203;DHT22;38173;52.850;6.970;2022-08-24T04:49:13;15.60;99.90
52203;DHT22;38173;52.850;6.970;2022-08-24T04:51:38;15.70;99.90
52203;DHT22;38173;52.850;6.970;2022-08-24T04:54:05;15.70;99.90
52203;DHT22;38173;52.850;6.970;2022-08-24T04:56:32;15.60;99.90
52203;DHT22;38173;52.850;6.970;2022-08-24T04:58:58;15.70;99.90
52203;DHT22;38173;52.850;6.970;2022-08-24T05:01:27;15.70;99.90
52203;DHT22;38173;52.850;6.970;2022-08-24T05:03:54;15.70;99.90
52203;DHT22;38173;52.850;6.970;2022-08-24T05:06:22;15.70;99.90
52203;DHT22;38173;52.850;6.970;2022-08-24T05:08:48;15.70;99.90
52203;DHT22;38173;52.850;6.970;2022-08-24T05:11:16;15.80;99.90
52203;DHT22;38173;52.850;6.970;2022-08-24T05:13:42;15.80;99.90
52203;DHT22;38173;52.850;6.970;2022-08-24T05:16:11;15.80;99.90
52203;DHT22;38173;52.850;6.970;2022-08-24T05:18:38;15.90;99.90
52203;DHT22;38173;52.850;6.970;2022-08-24T05:21:17;15.90;99.90
52203;DHT22;38173;52.850;6.970;2022-08-24T05:23:43;15.90;99.90
52203;DHT22;38173;52.850;6.970;2022-08-24T05:26:15;15.90;99.90
52203;DHT22;38173;52.850;6.970;2022-08-24T05:28:41;16.00;99.90
52203;DHT22;38173;52.850;6.970;2022-08-24T05:31:10;16.00;99.90
52203;DHT22;38173;52.850;6.970;2022-08-24T05:33:36;16.10;99.90
52203;DHT22;38173;52.850;6.970;2022-08-24T05:36:03;16.10;99.90
52203;DHT22;38173;52.850;6.970;2022-08-24T05:38:30;16.20;99.90
52203;DHT22;38173;52.850;6.970;2022-08-24T05:40:56;16.20;99.90
52203;DHT22;38173;52.850;6.970;2022-08-24T05:43:22;16.30;99.90
52203;DHT22;38173;52.850;6.970;2022-08-24T05:45:48;16.30;99.90
52203;DHT22;38173;52.850;6.970;2022-08-24T05:48:14;16.40;99.90
52203;DHT22;38173;52.850;6.970;2022-08-24T05:50:39;16.40;99.90
52203;DHT22;38173;52.850;6.970;2022-08-24T05:53:05;16.40;99.90
52203;DHT22;38173;52.850;6.970;2022-08-24T05:55:31;16.50;99.90
52203;DHT22;38173;52.850;6.970;2022-08-24T05:58:05;16.60;99.90
52203;DHT22;38173;52.850;6.970;2022-08-24T06:00:32;16.70;99.90
52203;DHT22;38173;52.850;6.970;2022-08-24T06:02:57;16.80;99.90
52203;DHT22;38173;52.850;6.970;2022-08-24T06:05:23;16.90;99.90
52203;DHT22;38173;52.850;6.970;2022-08-24T06:07:49;17.10;99.90
52203;DHT22;38173;52.850;6.970;2022-08-24T06:10:15;17.20;99.90
52203;DHT22;38173;52.850;6.970;2022-08-24T06:12:40;17.30;99.90
52203;DHT22;38173;52.850;6.970;2022-08-24T06:15:08;17.50;99.90
52203;DHT22;38173;52.850;6.970;2022-08-24T06:17:33;17.60;99.90
52203;DHT22;38173;52.850;6.970;2022-08-24T06:19:59;17.70;99.90
52203;DHT22;38173;52.850;6.970;2022-08-24T06:22:25;17.90;99.90
52203;DHT22;38173;52.850;6.970;2022-08-24T06:24:50;18.00;99.90
52203;DHT22;38173;52.850;6.970;2022-08-24T06:27:34;18.10;99.90
52203;DHT22;38173;52.850;6.970;2022-08-24T06:30:05;18.30;99.90
52203;DHT22;38173;52.850;6.970;2022-08-24T06:32:31;18.40;99.90
52203;DHT22;38173;52.850;6.970;2022-08-24T06:34:57;18.50;99.90
52203;DHT22;38173;52.850;6.970;2022-08-24T06:37:24;18.70;99.90
52203;DHT22;38173;52.850;6.970;2022-08-24T06:39:53;18.80;99.90
52203;DHT22;38173;52.850;6.970;2022-08-24T06:42:19;18.90;99.90
52203;DHT22;38173;52.850;6.970;2022-08-24T06:44:45;19.10;99.90
52203;DHT22;38173;52.850;6.970;2022-08-24T06:47:11;19.20;99.90
52203;DHT22;38173;52.850;6.970;2022-08-24T06:49:37;19.30;99.90
52203;DHT22;38173;52.850;6.970;2022-08-24T06:52:04;19.40;99.90
52203;DHT22;38173;52.850;6.970;2022-08-24T06:54:31;19.60;99.90
52203;DHT22;38173;52.850;6.970;2022-08-24T06:56:56;19.60;99.90
52203;DHT22;38173;52.850;6.970;2022-08-24T06:59:26;19.70;99.90
52203;DHT22;38173;52.850;6.970;2022-08-24T07:01:53;19.80;99.90
52203;DHT22;38173;52.850;6.970;2022-08-24T07:04:21;19.80;99.90
52203;DHT22;38173;52.850;6.970;2022-08-24T07:06:47;20.00;99.90
52203;DHT22;38173;52.850;6.970;2022-08-24T07:09:13;20.00;99.90
52203;DHT22;38173;52.850;6.970;2022-08-24T07:11:39;20.10;99.90
52203;DHT22;38173;52.850;6.970;2022-08-24T07:14:05;20.30;99.90
52203;DHT22;38173;52.850;6.970;2022-08-24T07:16:31;20.50;99.90
52203;DHT22;38173;52.850;6.970;2022-08-24T07:18:59;20.70;99.90
52203;DHT22;38173;52.850;6.970;2022-08-24T07:21:25;20.80;99.90
52203;DHT22;38173;52.850;6.970;2022-08-24T07:23:57;21.00;99.90
52203;DHT22;38173;52.850;6.970;2022-08-24T07:26:25;21.10;99.90
52203;DHT22;38173;52.850;6.970;2022-08-24T07:29:09;21.30;99.90
52203;DHT22;38173;52.850;6.970;2022-08-24T07:31:38;21.40;99.90
52203;DHT22;38173;52.850;6.970;2022-08-24T07:34:05;21.60;99.90
52203;DHT22;38173;52.850;6.970;2022-08-24T07:36:32;21.80;99.90
52203;DHT22;38173;52.850;6.970;2022-08-24T07:38:58;21.90;99.90
52203;DHT22;38173;52.850;6.970;2022-08-24T07:41:25;22.00;99.90
52203;DHT22;38173;52.850;6.970;2022-08-24T07:43:52;22.10;99.90
52203;DHT22;38173;52.850;6.970;2022-08-24T07:46:18;22.20;99.90
52203;DHT22;38173;52.850;6.970;2022-08-24T07:48:43;22.30;99.90
52203;DHT22;38173;52.850;6.970;2022-08-24T07:51:11;22.40;99.90
52203;DHT22;38173;52.850;6.970;2022-08-24T07:53:37;22.40;99.90
52203;DHT22;38173;52.850;6.970;2022-08-24T07:56:03;22.50;99.90
52203;DHT22;38173;52.850;6.970;2022-08-24T07:58:29;22.60;99.90
52203;DHT22;38173;52.850;6.970;2022-08-24T08:00:55;22.70;99.90
52203;DHT22;38173;52.850;6.970;2022-08-24T08:03:22;22.80;99.90
52203;DHT22;38173;52.850;6.970;2022-08-24T08:05:55;22.90;99.90
52203;DHT22;38173;52.850;6.970;2022-08-24T08:08:21;23.00;99.90
52203;DHT22;38173;52.850;6.970;2022-08-24T08:10:47;23.10;99.90
52203;DHT22;38173;52.850;6.970;2022-08-24T08:13:13;23.20;99.90
52203;DHT22;38173;52.850;6.970;2022-08-24T08:15:40;23.20;99.90
52203;DHT22;38173;52.850;6.970;2022-08-24T08:18:06;23.30;99.90
52203;DHT22;38173;52.850;6.970;2022-08-24T08:20:32;23.40;99.90
52203;DHT22;38173;52.850;6.970;2022-08-24T08:22:58;23.60;99.90
52203;DHT22;38173;52.850;6.970;2022-08-24T08:25:51;23.60;99.90
52203;DHT22;38173;52.850;6.970;2022-08-24T08:28:18;23.70;99.90
52203;DHT22;38173;52.850;6.970;2022-08-24T08:30:44;23.80;99.90
52203;DHT22;38173;52.850;6.970;2022-08-24T08:33:11;23.90;99.90
52203;DHT22;38173;52.850;6.970;2022-08-24T08:35:37;24.00;99.90
52203;DHT22;38173;52.850;6.970;2022-08-24T08:38:04;24.10;99.90
52203;DHT22;38173;52.850;6.970;2022-08-24T08:52:14;24.30;99.90
52203;DHT22;38173;52.850;6.970;2022-08-24T09:17:37;24.80;99.90
52203;DHT22;38173;52.850;6.970;2022-08-24T09:20:22;24.80;99.90
52203;DHT22;38173;52.850;6.970;2022-08-24T09:26:02;25.10;99.90
52203;DHT22;38173;52.850;6.970;2022-08-24T10:01:42;25.50;99.90
52203;DHT22;38173;52.850;6.970;2022-08-24T10:04:31;25.60;99.90
52203;DHT22;38173;52.850;6.970;2022-08-24T10:07:27;25.50;99.90
52203;DHT22;38173;52.850;6.970;2022-08-24T10:10:15;25.50;99.90
52203;DHT22;38173;52.850;6.970;2022-08-24T10:24:10;25.80;99.90
52203;DHT22;38173;52.850;6.970;2022-08-24T10:32:44;26.00;99.90
52203;DHT22;38173;52.850;6.970;2022-08-24T10:35:17;26.00;99.90
52203;DHT22;38173;52.850;6.970;2022-08-24T10:46:56;26.40;99.90
52203;DHT22;38173;52.850;6.970;2022-08-24T10:55:23;26.60;99.90
52203;DHT22;38173;52.850;6.970;2022-08-24T11:00:26;26.70;99.90
52203;DHT22;38173;52.850;6.970;2022-08-24T11:03:11;26.70;99.90
52203;DHT22;38173;52.850;6.970;2022-08-24T11:05:46;26.70;99.90
52203;DHT22;38173;52.850;6.970;2022-08-24T11:08:28;26.80;99.90
52203;DHT22;38173;52.850;6.970;2022-08-24T11:11:10;26.90;99.90
52203;DHT22;38173;52.850;6.970;2022-08-24T11:13:52;27.00;99.90
52203;DHT22;38173;52.850;6.970;2022-08-24T11:18:54;27.20;99.90
52203;DHT22;38173;52.850;6.970;2022-08-24T11:32:45;27.40;99.90
52203;DHT22;38173;52.850;6.970;2022-08-24T11:35:34;27.50;99.90
52203;DHT22;38173;52.850;6.970;2022-08-24T11:38:19;27.60;99.90
52203;DHT22;38173;52.850;6.970;2022-08-24T11:40:56;27.70;99.90
52203;DHT22;38173;52.850;6.970;2022-08-24T12:00:18;28.10;99.90
52203;DHT22;38173;52.850;6.970;2022-08-24T12:05:47;28.40;99.90
52203;DHT22;38173;52.850;6.970;2022-08-24T12:13:55;28.60;99.90
52203;DHT22;38173;52.850;6.970;2022-08-24T12:16:44;28.60;99.90
52203;DHT22;38173;52.850;6.970;2022-08-24T12:21:45;28.60;99.90
52203;DHT22;38173;52.850;6.970;2022-08-24T12:24:20;28.70;99.90
52203;DHT22;38173;52.850;6.970;2022-08-24T12:26:52;28.70;99.90
52203;DHT22;38173;52.850;6.970;2022-08-24T12:29:28;28.90;99.90
52203;DHT22;38173;52.850;6.970;2022-08-24T12:32:09;29.00;99.90
52203;DHT22;38173;52.850;6.970;2022-08-24T12:34:44;29.00;99.90
52203;DHT22;38173;52.850;6.970;2022-08-24T12:42:46;29.20;99.90
52203;DHT22;38173;52.850;6.970;2022-08-24T12:45:16;29.40;99.90
52203;DHT22;38173;52.850;6.970;2022-08-24T13:04:39;30.40;98.40
52203;DHT22;38173;52.850;6.970;2022-08-24T13:15:49;31.20;98.00
52203;DHT22;38173;52.850;6.970;2022-08-24T13:41:51;32.70;90.20
52203;DHT22;38173;52.850;6.970;2022-08-24T13:44:32;33.10;91.80
52203;DHT22;38173;52.850;6.970;2022-08-24T13:47:12;33.50;89.80
52203;DHT22;38173;52.850;6.970;2022-08-24T13:57:50;34.30;82.40
52203;DHT22;38173;52.850;6.970;2022-08-24T14:01:20;34.10;83.10
52203;DHT22;38173;52.850;6.970;2022-08-24T14:03:43;33.90;85.10
52203;DHT22;38173;52.850;6.970;2022-08-24T14:06:27;33.70;83.80
52203;DHT22;38173;52.850;6.970;2022-08-24T14:09:10;33.80;85.70
52203;DHT22;38173;52.850;6.970;2022-08-24T14:34:37;32.00;85.00
52203;DHT22;38173;52.850;6.970;2022-08-24T14:42:38;31.40;82.70
52203;DHT22;38173;52.850;6.970;2022-08-24T14:45:10;31.40;84.40
52203;DHT22;38173;52.850;6.970;2022-08-24T14:51:16;31.30;84.50
52203;DHT22;38173;52.850;6.970;2022-08-24T14:53:59;31.30;86.70
52203;DHT22;38173;52.850;6.970;2022-08-24T14:59:12;31.20;86.90
52203;DHT22;38173;52.850;6.970;2022-08-24T15:01:44;31.20;85.50
52203;DHT22;38173;52.850;6.970;2022-08-24T15:05:13;31.20;82.70
52203;DHT22;38173;52.850;6.970;2022-08-24T15:07:32;31.10;80.50
52203;DHT22;38173;52.850;6.970;2022-08-24T15:09:59;31.00;81.30
52203;DHT22;38173;52.850;6.970;2022-08-24T15:12:50;31.10;81.20
52203;DHT22;38173;52.850;6.970;2022-08-24T15:23:34;31.00;80.30
52203;DHT22;38173;52.850;6.970;2022-08-24T15:26:08;31.00;82.30
52203;DHT22;38173;52.850;6.970;2022-08-24T15:28:35;31.00;83.70
52203;DHT22;38173;52.850;6.970;2022-08-24T15:31:05;31.00;81.30
52203;DHT22;38173;52.850;6.970;2022-08-24T15:33:33;31.00;82.40
52203;DHT22;38173;52.850;6.970;2022-08-24T15:36:12;30.90;83.00
52203;DHT22;38173;52.850;6.970;2022-08-24T15:38:40;31.00;82.10
52203;DHT22;38173;52.850;6.970;2022-08-24T15:41:13;30.90;82.40
52203;DHT22;38173;52.850;6.970;2022-08-24T15:46:42;31.00;82.70
52203;DHT22;38173;52.850;6.970;2022-08-24T15:49:28;31.00;82.80
52203;DHT22;38173;52.850;6.970;2022-08-24T15:52:01;31.00;84.40
52203;DHT22;38173;52.850;6.970;2022-08-24T15:55:14;31.00;82.00
52203;DHT22;38173;52.850;6.970;2022-08-24T15:57:29;31.00;81.30
52203;DHT22;38173;52.850;6.970;2022-08-24T16:00:22;31.20;83.70
52203;DHT22;38173;52.850;6.970;2022-08-24T16:03:48;31.20;81.50
52203;DHT22;38173;52.850;6.970;2022-08-24T16:06:40;31.30;81.50
52203;DHT22;38173;52.850;6.970;2022-08-24T16:09:11;31.40;81.10
52203;DHT22;38173;52.850;6.970;2022-08-24T16:16:57;31.80;81.50
52203;DHT22;38173;52.850;6.970;2022-08-24T16:19:30;31.60;81.20
52203;DHT22;38173;52.850;6.970;2022-08-24T16:22:02;31.40;83.00
52203;DHT22;38173;52.850;6.970;2022-08-24T16:24:34;31.10;83.20
52203;DHT22;38173;52.850;6.970;2022-08-24T16:27:11;30.80;84.40
52203;DHT22;38173;52.850;6.970;2022-08-24T16:29:48;30.60;84.40
52203;DHT22;38173;52.850;6.970;2022-08-24T16:32:16;30.80;84.00
52203;DHT22;38173;52.850;6.970;2022-08-24T16:35:14;30.90;84.90
52203;DHT22;38173;52.850;6.970;2022-08-24T16:37:39;31.30;84.50
52203;DHT22;38173;52.850;6.970;2022-08-24T16:40:06;31.80;83.20
52203;DHT22;38173;52.850;6.970;2022-08-24T16:42:33;31.80;81.50
52203;DHT22;38173;52.850;6.970;2022-08-24T16:45:00;31.80;82.30
52203;DHT22;38173;52.850;6.970;2022-08-24T16:47:27;32.10;81.50
52203;DHT22;38173;52.850;6.970;2022-08-24T16:49:53;32.50;81.30
52203;DHT22;38173;52.850;6.970;2022-08-24T16:52:20;33.10;81.40
52203;DHT22;38173;52.850;6.970;2022-08-24T16:54:46;33.80;81.00
52203;DHT22;38173;52.850;6.970;2022-08-24T16:57:19;34.30;78.50
52203;DHT22;38173;52.850;6.970;2022-08-24T16:59:46;34.80;79.70
52203;DHT22;38173;52.850;6.970;2022-08-24T17:02:14;35.10;77.40
52203;DHT22;38173;52.850;6.970;2022-08-24T17:04:40;34.80;75.40
52203;DHT22;38173;52.850;6.970;2022-08-24T17:07:09;34.10;75.60
52203;DHT22;38173;52.850;6.970;2022-08-24T17:09:40;33.50;76.30
52203;DHT22;38173;52.850;6.970;2022-08-24T17:12:07;32.90;78.80
52203;DHT22;38173;52.850;6.970;2022-08-24T17:14:34;32.50;79.90
52203;DHT22;38173;52.850;6.970;2022-08-24T17:17:02;32.00;80.50
52203;DHT22;38173;52.850;6.970;2022-08-24T17:19:29;31.60;80.60
52203;DHT22;38173;52.850;6.970;2022-08-24T17:21:56;31.30;81.90
52203;DHT22;38173;52.850;6.970;2022-08-24T17:24:23;31.00;82.60
52203;DHT22;38173;52.850;6.970;2022-08-24T17:26:49;30.80;83.30
52203;DHT22;38173;52.850;6.970;2022-08-24T17:29:17;30.50;83.80
52203;DHT22;38173;52.850;6.970;2022-08-24T17:31:44;30.40;84.70
52203;DHT22;38173;52.850;6.970;2022-08-24T17:34:10;30.10;84.70
52203;DHT22;38173;52.850;6.970;2022-08-24T17:36:37;29.90;86.20
52203;DHT22;38173;52.850;6.970;2022-08-24T17:39:04;29.70;86.90
52203;DHT22;38173;52.850;6.970;2022-08-24T17:41:33;29.60;87.60
52203;DHT22;38173;52.850;6.970;2022-08-24T17:43:59;29.30;88.20
52203;DHT22;38173;52.850;6.970;2022-08-24T17:46:26;29.10;87.80
52203;DHT22;38173;52.850;6.970;2022-08-24T17:48:53;29.00;87.60
52203;DHT22;38173;52.850;6.970;2022-08-24T17:51:20;28.80;87.90
52203;DHT22;38173;52.850;6.970;2022-08-24T17:53:47;28.60;87.90
52203;DHT22;38173;52.850;6.970;2022-08-24T17:56:13;28.40;88.40
52203;DHT22;38173;52.850;6.970;2022-08-24T17:58:43;28.30;89.40
52203;DHT22;38173;52.850;6.970;2022-08-24T18:01:28;28.20;89.10
52203;DHT22;38173;52.850;6.970;2022-08-24T18:03:54;28.00;89.00
52203;DHT22;38173;52.850;6.970;2022-08-24T18:06:21;27.90;89.40
52203;DHT22;38173;52.850;6.970;2022-08-24T18:08:49;27.80;90.00
52203;DHT22;38173;52.850;6.970;2022-08-24T18:11:15;27.70;90.00
52203;DHT22;38173;52.850;6.970;2022-08-24T18:13:42;27.70;90.40
52203;DHT22;38173;52.850;6.970;2022-08-24T18:16:12;27.50;90.40
52203;DHT22;38173;52.850;6.970;2022-08-24T18:18:40;27.50;90.70
52203;DHT22;38173;52.850;6.970;2022-08-24T18:21:05;27.30;90.60
52203;DHT22;38173;52.850;6.970;2022-08-24T18:23:31;27.30;90.80
52203;DHT22;38173;52.850;6.970;2022-08-24T18:25:57;27.20;90.80
52203;DHT22;38173;52.850;6.970;2022-08-24T18:28:22;27.10;91.10
52203;DHT22;38173;52.850;6.970;2022-08-24T18:30:48;27.00;91.10
52203;DHT22;38173;52.850;6.970;2022-08-24T18:33:14;26.90;91.30
52203;DHT22;38173;52.850;6.970;2022-08-24T18:35:40;26.80;91.40
52203;DHT22;38173;52.850;6.970;2022-08-24T18:38:06;26.70;91.60
52203;DHT22;38173;52.850;6.970;2022-08-24T18:40:31;26.60;91.50
52203;DHT22;38173;52.850;6.970;2022-08-24T18:42:57;26.60;91.90
52203;DHT22;38173;52.850;6.970;2022-08-24T18:45:25;26.50;91.90
52203;DHT22;38173;52.850;6.970;2022-08-24T18:47:53;26.50;92.20
52203;DHT22;38173;52.850;6.970;2022-08-24T18:50:19;26.40;92.50
52203;DHT22;38173;52.850;6.970;2022-08-24T18:52:45;26.30;92.70
52203;DHT22;38173;52.850;6.970;2022-08-24T18:55:11;26.30;92.90
52203;DHT22;38173;52.850;6.970;2022-08-24T18:57:37;26.20;93.10
52203;DHT22;38173;52.850;6.970;2022-08-24T19:00:05;26.10;93.20
52203;DHT22;38173;52.850;6.970;2022-08-24T19:02:32;26.10;93.30
52203;DHT22;38173;52.850;6.970;2022-08-24T19:05:05;26.00;93.50
52203;DHT22;38173;52.850;6.970;2022-08-24T19:07:37;26.00;93.60
52203;DHT22;38173;52.850;6.970;2022-08-24T19:10:07;25.90;93.80
52203;DHT22;38173;52.850;6.970;2022-08-24T19:12:37;25.90;94.10
52203;DHT22;38173;52.850;6.970;2022-08-24T19:15:05;25.80;94.20
52203;DHT22;38173;52.850;6.970;2022-08-24T19:17:31;25.80;94.70
52203;DHT22;38173;52.850;6.970;2022-08-24T19:19:57;25.70;94.70
52203;DHT22;38173;52.850;6.970;2022-08-24T19:22:24;25.70;94.80
52203;DHT22;38173;52.850;6.970;2022-08-24T19:24:50;25.70;95.10
52203;DHT22;38173;52.850;6.970;2022-08-24T19:27:16;25.60;95.30
52203;DHT22;38173;52.850;6.970;2022-08-24T19:29:42;25.60;95.60
52203;DHT22;38173;52.850;6.970;2022-08-24T19:32:08;25.50;95.60
52203;DHT22;38173;52.850;6.970;2022-08-24T19:34:35;25.50;95.70
52203;DHT22;38173;52.850;6.970;2022-08-24T19:37:01;25.50;95.90
52203;DHT22;38173;52.850;6.970;2022-08-24T19:39:27;25.50;95.90
52203;DHT22;38173;52.850;6.970;2022-08-24T19:41:53;25.50;96.10
52203;DHT22;38173;52.850;6.970;2022-08-24T19:44:19;25.50;96.30
52203;DHT22;38173;52.850;6.970;2022-08-24T19:47:05;25.40;96.40
52203;DHT22;38173;52.850;6.970;2022-08-24T19:49:32;25.40;96.70
52203;DHT22;38173;52.850;6.970;2022-08-24T19:51:58;25.30;97.00
52203;DHT22;38173;52.850;6.970;2022-08-24T19:54:33;25.30;97.50
52203;DHT22;38173;52.850;6.970;2022-08-24T19:57:00;25.20;98.10
52203;DHT22;38173;52.850;6.970;2022-08-24T19:59:32;25.20;98.20
52203;DHT22;38173;52.850;6.970;2022-08-24T20:01:59;25.10;98.80
52203;DHT22;38173;52.850;6.970;2022-08-24T20:04:25;25.00;99.20
52203;DHT22;38173;52.850;6.970;2022-08-24T20:06:51;24.90;99.80
52203;DHT22;38173;52.850;6.970;2022-08-24T20:09:18;24.80;99.90